| Pilot: | GLD1043 Marcio M. | Aircraft: | $$:Helicopter | Distance: | 116NM |
| From: | SIPK | To: | SBCY | Duration: | 1.61 |
| Validation: | Valid | Tipo: | Charter | Tail Number: | PT-GLD |
| ZFW: | 3146 | Block Fuel/Init FOB | 354flight_details.php/129 | Flight Fuel | 354 |
| Passengers: | 2 | Cargo: | 30 | Alternate: | SBRD |
| Departure Time: | 1812 | Cruise Speed: | 0140 | Flight Level: | A035 |
| Flight Type: | VFR | Aircraft Type: | AS50 | Weight Unit: | Kg |
| Date: | 29/03/2026 | Comments: | GOLD ACARS | Network: | VATSIM |
| Crash: | No | Validator Comments: | Rating | 109.989 |
| ROUTE | DCT 1611S05624W 1556S05607W REA |
| REMARKS | OPR/GOLD VIRTUAL AIRLINES PER/H RMK/FROM SBRJ RMK/PIC GLD1043 |
| Crash | OK | Beacon Lights off with engine on | OK | Speed above 250KIAS below 10.000ft | OK |
| Landing Lights OFF below 10.000ft | OK | Landing Lights ON above 10.000ft | OK | Stall | OK |
| Overspeed | OK | Pause | OK | Refuel | OK |
| Slew | OK | Taxi Lights OFF during taxi | OK | Land Lights OFF during take off | OK |
| Landing Lights OFF during landing | OK | Landed in not planned airfield | OK | Taxi speed above 25 kt | OK |
| Incorrect QNH during take off | OK | Incorrect QNH during landing | OK |
| Wind: | 150º/4 kt | Heading: | 164 |
| VS: | -52 ft/min | IAS: | 5 kt |
| Gforce: | 1.0736 G | Bank: | 0.11 |
| Pitch | 2.23 | Flaps | 0 |
| Nav Lights | OFF | Landing Lights | ON |
| Beacon Lights | ON | Strobe Lights | OFF |
| DATE | EVENT | IAS | ALTITUDE |
|---|---|---|---|
| 2026-03-29 18:12:58 | GOLD ACARS VERSION 3.3.6.9 | 0 | 0 |
| 2026-03-29 18:12:58 | TAXI LIGHTS ON | 0 | 0 |
| 2026-03-29 18:12:58 | BOARDING | 0 | 455 |
| 2026-03-29 18:12:58 | LITTLENAVMAP ON | 0 | 455 |
| 2026-03-29 18:12:59 | BCN LIGHTS ON | 0 | 455 |
| 2026-03-29 18:13:16 | STARTING ENGINE 1 | 0 | 455 |
| 2026-03-29 18:16:39 | LND LIGHTS ON | 0 | 455 |
| 2026-03-29 18:18:49 | CLIMBING | 52 | 577 |
| 2026-03-29 18:20:13 | CRUISE | 113 | 1458 |
| 2026-03-29 18:20:49 | CLIMBING | 119 | 1583 |
| 2026-03-29 18:21:12 | CRUISE | 113 | 1784 |
| 2026-03-29 18:21:17 | CLIMBING | 112 | 1804 |
| 2026-03-29 18:23:44 | CRUISE | 101 | 3562 |
| 2026-03-29 18:30:20 | DESCEND | 118 | 3485 |
| 2026-03-29 19:12:33 | LANDED AIRPORT [SBCY] | 5 | 594 |
| 2026-03-29 19:12:33 | TAXI TO THE GATE | 5 | 594 |
| 2026-03-29 19:12:48 | LND LIGHTS OFF | 4 | 593 |
| 2026-03-29 19:15:22 | LND LIGHTS ON | 4 | 593 |
| 2026-03-29 19:18:11 | CLIMBING | 53 | 728 |
| 2026-03-29 19:18:42 | CRUISE | 76 | 987 |
| 2026-03-29 19:18:48 | CLIMBING | 77 | 1013 |
| 2026-03-29 19:19:15 | CRUISE | 79 | 1373 |
| 2026-03-29 19:19:19 | CLIMBING | 84 | 1391 |
| 2026-03-29 19:19:26 | CRUISE | 89 | 1437 |
| 2026-03-29 19:19:30 | CLIMBING | 92 | 1465 |
| 2026-03-29 19:19:43 | CRUISE | 96 | 1581 |
| 2026-03-29 19:20:21 | LANDING | 113 | 1622 |
| 2026-03-29 19:21:08 | CLIMBING | 128 | 1209 |
| 2026-03-29 19:21:20 | CRUISE | 91 | 1323 |
| 2026-03-29 19:21:26 | LANDING | 78 | 1319 |
| 2026-03-29 19:24:40 | CLIMBING | 86 | 939 |
| 2026-03-29 19:24:44 | CRUISE | 87 | 987 |
| 2026-03-29 19:24:47 | CLIMBING | 87 | 994 |
| 2026-03-29 19:25:10 | CRUISE | 83 | 1180 |
| 2026-03-29 19:26:40 | CLIMBING | 78 | 1321 |
| 2026-03-29 19:26:44 | CRUISE | 71 | 1349 |
| 2026-03-29 19:26:54 | LANDING | 54 | 1347 |
| 2026-03-29 19:32:52 | CLIMBING | 27 | 1062 |
| 2026-03-29 19:33:22 | CRUISE | 0 | 1342 |
| 2026-03-29 19:33:28 | LANDING | 0 | 1341 |
| 2026-03-29 19:36:04 | CLIMBING | 0 | 927 |
| 2026-03-29 19:36:14 | CRUISE | 0 | 995 |
| 2026-03-29 19:36:26 | LANDING | 1 | 1019 |
| 2026-03-29 19:38:15 | LANDED AIRPORT [SBCY] | 0 | 629 |
| 2026-03-29 19:38:15 | LANDED - VS: -475 ft/min | 0 | 623 |
| 2026-03-29 19:39:29 | CLIMBING | 0 | 684 |
| 2026-03-29 19:39:56 | CRUISE | 29 | 998 |
| 2026-03-29 19:40:23 | CLIMBING | 80 | 1075 |
| 2026-03-29 19:40:29 | CRUISE | 84 | 1138 |
| 2026-03-29 19:40:48 | CLIMBING | 87 | 1178 |
| 2026-03-29 19:40:53 | CRUISE | 83 | 1223 |
| 2026-03-29 19:41:00 | LANDING | 84 | 1228 |
| 2026-03-29 19:45:54 | LANDED AIRPORT [SBCY] | 5 | 595 |
| 2026-03-29 19:45:54 | TAXI TO THE GATE | 5 | 594 |
| 2026-03-29 19:46:51 | STOPPING ENGINE 1 | 3 | 593 |
| 2026-03-29 19:49:16 | LND LIGHTS OFF | 3 | 593 |
| 2026-03-29 19:49:16 | TAXI LIGHTS OFF | 3 | 593 |
| 2026-03-29 19:49:17 | BCN LIGHTS OFF | 3 | 593 |
| 2026-03-29 19:49:18 | LND LIGHTS ON | 3 | 593 |
| 2026-03-29 19:49:18 | FLIGHT FINISHED | 3 | 593 |
| DATE | IAS | GS | ALTITUDE | FUEL USED | OAT | Flight Phase |
|---|---|---|---|---|---|---|
| 2026-03-29 18:14:58 | 0 | 0 | 455 | 1 | 32 | BOARDING |
| 2026-03-29 18:15:58 | 0 | 0 | 455 | 2 | 32 | BOARDING |
| 2026-03-29 18:16:58 | 0 | 0 | 455 | 4 | 32 | BOARDING |
| 2026-03-29 18:17:58 | 0 | 2 | 458 | 6 | 32 | BOARDING |
| 2026-03-29 18:18:58 | 72 | 83 | 714 | 9 | 31 | BOARDING |
| 2026-03-29 18:19:59 | 109 | 119 | 1368 | 12 | 30 | CLIMBING |
| 2026-03-29 18:20:59 | 116 | 126 | 1675 | 15 | 29 | CLIMBING |
| 2026-03-29 18:21:59 | 98 | 108 | 2388 | 18 | 27 | CLIMBING |
| 2026-03-29 18:22:59 | 98 | 110 | 3121 | 21 | 25 | CLIMBING |
| 2026-03-29 18:23:59 | 111 | 125 | 3542 | 24 | 24 | CLIMBING |
| 2026-03-29 18:24:59 | 117 | 130 | 3539 | 27 | 24 | CRUISE |
| 2026-03-29 18:25:59 | 117 | 130 | 3507 | 30 | 24 | CRUISE |
| 2026-03-29 18:27:00 | 116 | 129 | 3506 | 33 | 24 | CRUISE |
| 2026-03-29 18:28:00 | 117 | 130 | 3504 | 36 | 24 | CRUISE |
| 2026-03-29 18:29:00 | 117 | 127 | 3506 | 38 | 24 | CRUISE |
| 2026-03-29 18:30:00 | 117 | 127 | 3506 | 41 | 24 | CRUISE |
| 2026-03-29 18:31:00 | 121 | 132 | 3181 | 44 | 25 | CRUISE |
| 2026-03-29 18:32:00 | 119 | 130 | 2791 | 46 | 26 | DESCEND |
| 2026-03-29 18:33:01 | 124 | 136 | 2306 | 49 | 27 | DESCEND |
| 2026-03-29 18:34:01 | 112 | 122 | 2188 | 52 | 28 | DESCEND |
| 2026-03-29 18:35:01 | 108 | 119 | 2190 | 54 | 28 | DESCEND |
| 2026-03-29 18:36:01 | 108 | 120 | 2190 | 57 | 28 | DESCEND |
| 2026-03-29 18:37:01 | 108 | 119 | 2191 | 60 | 28 | DESCEND |
| 2026-03-29 18:38:01 | 107 | 118 | 2189 | 62 | 28 | DESCEND |
| 2026-03-29 18:39:01 | 107 | 114 | 2190 | 65 | 28 | DESCEND |
| 2026-03-29 18:40:01 | 109 | 116 | 2190 | 68 | 28 | DESCEND |
| 2026-03-29 18:41:02 | 108 | 115 | 2190 | 70 | 28 | DESCEND |
| 2026-03-29 18:42:02 | 109 | 117 | 2189 | 73 | 28 | DESCEND |
| 2026-03-29 18:43:02 | 108 | 115 | 2189 | 76 | 28 | DESCEND |
| 2026-03-29 18:44:02 | 110 | 118 | 2191 | 78 | 28 | DESCEND |
| 2026-03-29 18:45:02 | 110 | 117 | 2190 | 81 | 28 | DESCEND |
| 2026-03-29 18:46:02 | 109 | 116 | 2190 | 84 | 28 | DESCEND |
| 2026-03-29 18:47:03 | 107 | 122 | 2191 | 86 | 28 | DESCEND |
| 2026-03-29 18:48:03 | 108 | 123 | 2189 | 89 | 28 | DESCEND |
| 2026-03-29 18:49:03 | 106 | 120 | 2191 | 92 | 28 | DESCEND |
| 2026-03-29 18:50:03 | 106 | 121 | 2191 | 94 | 28 | DESCEND |
| 2026-03-29 18:51:03 | 108 | 123 | 2190 | 97 | 28 | DESCEND |
| 2026-03-29 18:52:03 | 110 | 124 | 2192 | 100 | 28 | DESCEND |
| 2026-03-29 18:53:03 | 109 | 124 | 2191 | 102 | 28 | DESCEND |
| 2026-03-29 18:54:04 | 110 | 124 | 2189 | 105 | 28 | DESCEND |
| 2026-03-29 18:55:04 | 108 | 122 | 2189 | 108 | 28 | DESCEND |
| 2026-03-29 18:56:04 | 107 | 122 | 2190 | 110 | 28 | DESCEND |
| 2026-03-29 18:57:04 | 107 | 113 | 2190 | 113 | 28 | DESCEND |
| 2026-03-29 18:58:04 | 109 | 115 | 2190 | 116 | 28 | DESCEND |
| 2026-03-29 18:59:04 | 110 | 117 | 2191 | 118 | 28 | DESCEND |
| 2026-03-29 19:00:05 | 110 | 117 | 2191 | 121 | 28 | DESCEND |
| 2026-03-29 19:01:05 | 111 | 117 | 2190 | 124 | 28 | DESCEND |
| 2026-03-29 19:02:05 | 108 | 113 | 2192 | 126 | 28 | DESCEND |
| 2026-03-29 19:03:05 | 111 | 115 | 2072 | 129 | 28 | DESCEND |
| 2026-03-29 19:04:05 | 103 | 108 | 1935 | 131 | 29 | DESCEND |
| 2026-03-29 19:05:05 | 92 | 99 | 1820 | 134 | 29 | DESCEND |
| 2026-03-29 19:06:06 | 89 | 102 | 1781 | 136 | 29 | DESCEND |
| 2026-03-29 19:07:06 | 76 | 71 | 1574 | 138 | 29 | DESCEND |
| 2026-03-29 19:08:06 | 64 | 60 | 999 | 140 | 29 | DESCEND |
| 2026-03-29 19:09:06 | 17 | 14 | 622 | 142 | 29 | DESCEND |
| 2026-03-29 19:10:06 | 18 | 11 | 607 | 144 | 29 | DESCEND |
| 2026-03-29 19:11:06 | 16 | 11 | 604 | 147 | 29 | DESCEND |
| 2026-03-29 19:12:07 | 6 | 2 | 599 | 149 | 29 | DESCEND |
| 2026-03-29 19:13:07 | 5 | 0 | 593 | 151 | 29 | DESCEND |
| 2026-03-29 19:14:07 | 5 | 0 | 593 | 152 | 29 | TAXI TO THE GATE |
| 2026-03-29 19:15:07 | 5 | 0 | 593 | 153 | 29 | TAXI TO THE GATE |
| 2026-03-29 19:16:07 | 5 | 0 | 593 | 154 | 29 | TAXI TO THE GATE |
| 2026-03-29 19:17:07 | 4 | 12 | 615 | 156 | 29 | TAXI TO THE GATE |
| 2026-03-29 19:18:07 | 45 | 53 | 705 | 159 | 29 | TAXI TO THE GATE |
| 2026-03-29 19:19:08 | 74 | 76 | 1301 | 162 | 29 | TAXI TO THE GATE |
| 2026-03-29 19:20:08 | 106 | 124 | 1645 | 164 | 29 | CLIMBING |
| 2026-03-29 19:21:08 | 128 | 132 | 1209 | 167 | 28 | CRUISE |
| 2026-03-29 19:22:08 | 13 | 29 | 1111 | 169 | 28 | CLIMBING |
| 2026-03-29 19:23:08 | 18 | 28 | 1017 | 171 | 28 | LANDING |
| 2026-03-29 19:24:09 | 42 | 50 | 967 | 174 | 28 | LANDING |
| 2026-03-29 19:25:09 | 83 | 87 | 1172 | 176 | 28 | LANDING |
| 2026-03-29 19:26:09 | 84 | 83 | 1224 | 178 | 28 | CLIMBING |
| 2026-03-29 19:27:09 | 38 | 38 | 1288 | 181 | 28 | CRUISE |
| 2026-03-29 19:28:09 | 25 | 33 | 1108 | 183 | 28 | LANDING |
| 2026-03-29 19:29:09 | 2 | 23 | 988 | 185 | 28 | LANDING |
| 2026-03-29 19:30:09 | 2 | 19 | 965 | 187 | 28 | LANDING |
| 2026-03-29 19:31:10 | 12 | 26 | 977 | 189 | 28 | LANDING |
| 2026-03-29 19:32:10 | 4 | 32 | 941 | 192 | 28 | LANDING |
| 2026-03-29 19:33:10 | 4 | 14 | 1253 | 194 | 28 | LANDING |
| 2026-03-29 19:34:10 | 20 | 24 | 1088 | 196 | 28 | CLIMBING |
| 2026-03-29 19:35:10 | 5 | 3 | 926 | 198 | 27 | LANDING |
| 2026-03-29 19:36:10 | 0 | 2 | 974 | 201 | 28 | LANDING |
| 2026-03-29 19:37:11 | 1 | 14 | 949 | 203 | 27 | CLIMBING |
| 2026-03-29 19:38:11 | 0 | 2 | 628 | 205 | 27 | LANDING |
| 2026-03-29 19:39:11 | 0 | 0 | 615 | 207 | 27 | LANDING |
| 2026-03-29 19:40:11 | 69 | 75 | 1052 | 210 | 28 | LANDED - VS: -475 ft/min |
| 2026-03-29 19:41:11 | 86 | 88 | 1211 | 213 | 28 | CRUISE |
| 2026-03-29 19:42:11 | 46 | 42 | 781 | 214 | 27 | LANDING |
| 2026-03-29 19:43:11 | 28 | 25 | 622 | 217 | 27 | LANDING |
| 2026-03-29 19:44:11 | 11 | 9 | 613 | 219 | 27 | LANDING |
| 2026-03-29 19:45:11 | 4 | 3 | 599 | 221 | 27 | LANDING |
| 2026-03-29 19:46:11 | 4 | 0 | 593 | 224 | 27 | LANDING |
| 2026-03-29 19:47:11 | 4 | 0 | 593 | 224 | 27 | TAXI TO THE GATE |
| 2026-03-29 19:48:12 | 4 | 0 | 593 | 224 | 27 | TAXI TO THE GATE |
| 2026-03-29 19:49:12 | 4 | 0 | 593 | 224 | 27 | TAXI TO THE GATE |